Terminal Aerodrome Forecast
Issued by NWS Charleston, WV

Current Version | Previous Version | Graphics & Text | Print | Product List | Glossary Off
Versions: 1 2 3 4 5 6 7 8 9 10 11 12 13 14 15 16 17 18 19 20 21

000
FTUS41 KRLX 232100 AAA
TAFBKW
TAF AMD
KBKW 232100Z 2321/2418 32008KT P6SM FEW050
     FM241100 VRB02KT 5SM BR FEW025
     FM241300 VRB02KT P6SM FEW035=

USA.gov is the U.S. government's official web portal to all federal, state and local government web resources and services.